Portada
METAR-TAF:

METAR-TAF

Aeroports :

Kédougou, Senegal

latitud: 12-34N, longitud: 012-13W, altitud: 178 m

Observació

L'informe es va fer fa 1 hora i 19 minuts, a les 03:00 UTC
Vent 4 kt del Nord/Nord-Est
Temperatura 25°C
Humitat 32%
Pressió 1012 hPa
Visibilitat: 8000 m

METAR: GOTK 290300Z 02004KT 8000 25/07 Q1012

Hora: 04:19 (04:19 UTC)


TAF: manca

Observacions i pronòstics meteorològics de més de 4000 aeroports (METAR i TAF).

Les estacions disponibles són els punts grocs i vermells al mapa.

Posi el ratolí al punt desitjat per veure el nom de l'estació.

Feu clic per veure les observacions i els pronòstics meteorològics.

Per canviar el mapa: feu clic els botons verds amb una creu de color negre per apropar; al botó verd amb un guió per allunyar la imatge; o en les fletxes verdes per a mapes adjacents.


METAR-TAF: